createdAt,value
2019-03-19T00:00:39.986Z,0.00
2019-03-19T00:01:39.964Z,0.00
2019-03-19T00:02:39.964Z,0.00
2019-03-19T00:03:39.937Z,0.00
2019-03-19T00:04:39.961Z,0.00
2019-03-19T00:05:39.917Z,0.00
2019-03-19T00:06:39.908Z,0.00
2019-03-19T00:07:39.914Z,0.00
2019-03-19T00:08:39.894Z,0.00
2019-03-19T00:09:39.954Z,0.00
2019-03-19T00:10:39.863Z,0.00
2019-03-19T00:11:39.852Z,0.00
2019-03-19T00:12:39.857Z,0.00
2019-03-19T00:13:39.844Z,0.00
2019-03-19T00:14:39.838Z,0.00
2019-03-19T00:15:39.819Z,0.00
2019-03-19T00:16:39.799Z,0.00
2019-03-19T00:17:39.808Z,0.00
2019-03-19T00:18:39.793Z,0.00
2019-03-19T00:19:39.774Z,0.00
2019-03-19T00:20:39.775Z,0.00
2019-03-19T00:21:39.748Z,0.00
2019-03-19T00:22:39.747Z,0.00
2019-03-19T00:23:39.729Z,0.00
2019-03-19T00:24:39.720Z,0.00
2019-03-19T00:25:39.706Z,0.00
2019-03-19T00:26:39.714Z,0.00
2019-03-19T00:27:39.682Z,0.00
2019-03-19T00:28:39.692Z,0.00
2019-03-19T00:29:39.662Z,0.00
2019-03-19T05:00:37.604Z,0.00
2019-03-19T05:01:37.584Z,4.00
2019-03-19T05:02:37.580Z,4.00
2019-03-19T05:03:37.560Z,0.00
2019-03-19T05:04:37.544Z,4.00
2019-03-19T05:05:37.553Z,4.00
2019-03-19T05:06:37.557Z,4.00
2019-03-19T05:07:37.529Z,4.00
2019-03-19T05:08:37.508Z,4.00
2019-03-19T05:09:37.526Z,4.00
2019-03-19T05:10:37.485Z,4.00
2019-03-19T05:11:37.489Z,8.00
2019-03-19T05:12:37.470Z,8.00
2019-03-19T05:13:37.456Z,12.00
2019-03-19T05:14:37.445Z,12.00
2019-03-19T05:15:37.455Z,16.00
2019-03-19T05:16:37.419Z,16.00
2019-03-19T05:17:37.412Z,20.00
2019-03-19T05:18:37.414Z,28.00
2019-03-19T05:19:37.394Z,32.00
2019-03-19T05:20:37.399Z,40.00
2019-03-19T05:21:37.374Z,44.00
2019-03-19T05:22:44.909Z,52.00
2019-03-19T05:23:37.351Z,60.00
2019-03-19T05:24:37.409Z,72.00
2019-03-19T05:25:37.354Z,84.00
2019-03-19T05:26:37.335Z,92.00
2019-03-19T05:27:37.905Z,112.00
2019-03-19T05:28:37.296Z,120.00
2019-03-19T05:29:37.289Z,140.00
2019-03-19T05:30:37.304Z,156.00
2019-03-19T05:31:37.281Z,176.00
2019-03-19T05:32:37.273Z,196.00
2019-03-19T05:33:37.249Z,216.00
2019-03-19T05:34:37.240Z,240.00
2019-03-19T05:35:37.249Z,264.00
2019-03-19T05:36:37.225Z,288.00
2019-03-19T05:37:37.211Z,320.00
2019-03-19T05:38:37.204Z,348.00
2019-03-19T05:39:37.183Z,380.00
2019-03-19T05:40:37.175Z,412.00
2019-03-19T05:41:37.197Z,448.00
2019-03-19T05:42:37.157Z,484.00
2019-03-19T05:43:37.183Z,520.00
2019-03-19T05:44:37.149Z,564.00
2019-03-19T05:45:37.233Z,604.00
2019-03-19T05:46:37.125Z,648.00
2019-03-19T05:47:40.202Z,692.00
2019-03-19T05:48:37.090Z,744.00
2019-03-19T05:49:37.116Z,796.00
2019-03-19T05:50:37.074Z,852.00
2019-03-19T05:51:37.080Z,912.00
2019-03-19T05:52:37.061Z,972.00
2019-03-19T05:53:37.037Z,1040.00
2019-03-19T05:54:37.041Z,1108.00
2019-03-19T05:55:37.030Z,1176.00
2019-03-19T05:56:37.012Z,1252.00
2019-03-19T05:57:48.410Z,1376.00
2019-03-19T05:58:38.006Z,1696.00
2019-03-19T05:59:36.981Z,2196.00
2019-03-19T06:00:36.970Z,2520.00
2019-03-19T06:01:36.962Z,2488.00
2019-03-19T06:02:36.973Z,2416.00
2019-03-19T06:03:36.948Z,2696.00
2019-03-19T06:04:36.927Z,2804.00
2019-03-19T06:05:36.919Z,2924.00
2019-03-19T06:06:36.918Z,3096.00
2019-03-19T06:07:36.913Z,3192.00
2019-03-19T06:08:36.887Z,3320.00
2019-03-19T06:09:36.923Z,3456.00
2019-03-19T06:10:36.862Z,3544.00
2019-03-19T06:11:36.871Z,3744.00
2019-03-19T06:12:36.844Z,3684.00
2019-03-19T06:13:36.852Z,3488.00
2019-03-19T06:14:36.841Z,3552.00
2019-03-19T06:15:36.815Z,3848.00
2019-03-19T06:16:36.812Z,4320.00
2019-03-19T06:17:36.795Z,4688.00
2019-03-19T06:18:36.779Z,5032.00
2019-03-19T06:19:36.793Z,5520.00
2019-03-19T06:20:36.765Z,5180.00
2019-03-19T06:21:36.747Z,6088.00
2019-03-19T06:22:36.743Z,7020.00
2019-03-19T06:23:36.763Z,6252.00
2019-03-19T06:24:36.753Z,5364.00
2019-03-19T06:25:36.702Z,5544.00
2019-03-19T06:26:36.703Z,6392.00
2019-03-19T06:27:36.685Z,7632.00
2019-03-19T06:28:36.694Z,8236.00
2019-03-19T06:29:36.692Z,6812.00
2019-03-19T06:30:36.657Z,7044.00
2019-03-19T06:31:36.644Z,7828.00
2019-03-19T06:32:36.632Z,14016.00
2019-03-19T06:33:36.640Z,13480.00
2019-03-19T06:34:36.702Z,9932.00
2019-03-19T06:35:36.994Z,10812.00
2019-03-19T06:36:36.604Z,11200.00
2019-03-19T06:37:36.582Z,10740.00
2019-03-19T06:38:36.646Z,9728.00
2019-03-19T06:39:36.570Z,9768.00
2019-03-19T06:40:36.593Z,10020.00
2019-03-19T06:41:36.543Z,8588.00
2019-03-19T06:42:36.524Z,8556.00
2019-03-19T06:43:36.527Z,9732.00
2019-03-19T06:44:36.524Z,10336.00
2019-03-19T06:45:36.502Z,9088.00
2019-03-19T06:46:36.492Z,8740.00
2019-03-19T06:47:36.478Z,8404.00
2019-03-19T06:48:36.490Z,9120.00
2019-03-19T06:49:36.458Z,11316.00
2019-03-19T06:50:44.711Z,13472.00
2019-03-19T06:51:37.432Z,13600.00
2019-03-19T06:52:36.425Z,12972.00
2019-03-19T06:53:36.405Z,12632.00
2019-03-19T06:54:36.414Z,11056.00
2019-03-19T06:55:36.389Z,8824.00
2019-03-19T06:56:36.460Z,9948.00
2019-03-19T06:57:39.459Z,12884.00
2019-03-19T06:58:36.363Z,15968.00
2019-03-19T06:59:36.347Z,13476.00
2019-03-19T07:00:36.336Z,15872.00
2019-03-19T07:01:36.350Z,14416.00
2019-03-19T07:02:36.323Z,11180.00
2019-03-19T07:03:36.302Z,8784.00
2019-03-19T07:04:36.298Z,7272.00
2019-03-19T07:05:36.289Z,7820.00
2019-03-19T07:06:36.310Z,6748.00
2019-03-19T07:07:36.261Z,5824.00
2019-03-19T07:08:36.258Z,6152.00
2019-03-19T07:09:36.262Z,6744.00
2019-03-19T07:10:36.241Z,6500.00
2019-03-19T07:11:36.222Z,6460.00
2019-03-19T07:12:36.223Z,6768.00
2019-03-19T07:13:36.205Z,6368.00
2019-03-19T07:14:36.204Z,6000.00
2019-03-19T07:15:36.184Z,6128.00
2019-03-19T07:16:36.190Z,6024.00
2019-03-19T07:17:36.191Z,5892.00
2019-03-19T07:18:36.143Z,5812.00
2019-03-19T07:19:36.138Z,5900.00
2019-03-19T07:20:36.138Z,6128.00
2019-03-19T07:21:36.131Z,6068.00
2019-03-19T07:22:36.108Z,6064.00
2019-03-19T07:23:36.130Z,6196.00
2019-03-19T07:24:36.084Z,6056.00
2019-03-19T07:25:36.102Z,5984.00
2019-03-19T07:26:36.067Z,5844.00
2019-03-19T07:27:36.065Z,5780.00
2019-03-19T07:28:36.047Z,5768.00
2019-03-19T07:29:36.049Z,5832.00
2019-03-19T07:30:36.019Z,5964.00
2019-03-19T07:31:36.009Z,5964.00
2019-03-19T07:32:36.013Z,5992.00
2019-03-19T07:33:35.997Z,6192.00
2019-03-19T07:34:35.983Z,6112.00
2019-03-19T07:35:35.968Z,5880.00
2019-03-19T07:36:35.969Z,5808.00
2019-03-19T07:37:36.005Z,5904.00
2019-03-19T07:38:35.941Z,5912.00
2019-03-19T07:39:35.938Z,6004.00
2019-03-19T07:40:35.915Z,5984.00
2019-03-19T07:41:35.907Z,6028.00
2019-03-19T07:42:35.938Z,6264.00
2019-03-19T07:43:35.892Z,6388.00
2019-03-19T07:44:35.908Z,6732.00
2019-03-19T07:45:35.862Z,7012.00
2019-03-19T07:46:35.855Z,6984.00
2019-03-19T07:47:35.883Z,6916.00
2019-03-19T07:48:35.856Z,6528.00
2019-03-19T07:49:35.823Z,6376.00
2019-03-19T07:50:35.834Z,6856.00
2019-03-19T07:51:35.798Z,6980.00
2019-03-19T07:52:35.811Z,6712.00
2019-03-19T07:53:35.799Z,6680.00
2019-03-19T07:54:35.776Z,6776.00
2019-03-19T07:55:35.762Z,6852.00
2019-03-19T07:56:35.763Z,6876.00
2019-03-19T07:57:35.759Z,6872.00
2019-03-19T07:58:44.764Z,6824.00
2019-03-19T07:59:36.714Z,6680.00
2019-03-19T08:00:35.705Z,6544.00
2019-03-19T08:01:35.699Z,6492.00
2019-03-19T08:02:35.694Z,6492.00
2019-03-19T08:03:35.716Z,6444.00
2019-03-19T08:04:35.664Z,6452.00
2019-03-19T08:05:35.648Z,6368.00
2019-03-19T08:06:35.657Z,6300.00
2019-03-19T08:07:35.668Z,6344.00
2019-03-19T08:08:35.652Z,6340.00
2019-03-19T08:09:35.667Z,6364.00
2019-03-19T08:10:35.599Z,6296.00
2019-03-19T08:11:35.627Z,6268.00
2019-03-19T08:12:43.108Z,6256.00
2019-03-19T08:13:43.111Z,6280.00
2019-03-19T08:14:43.105Z,6188.00
2019-03-19T08:15:43.086Z,6260.00
2019-03-19T08:16:43.078Z,6340.00
2019-03-19T08:17:43.308Z,6264.00
2019-03-19T08:18:43.042Z,5976.00
2019-03-19T08:19:43.045Z,5956.00
2019-03-19T08:20:35.515Z,5960.00
2019-03-19T08:21:43.027Z,5976.00
2019-03-19T08:22:43.010Z,6000.00
2019-03-19T08:23:35.460Z,6076.00
2019-03-19T08:24:35.456Z,6140.00
2019-03-19T08:25:35.454Z,6164.00
2019-03-19T08:26:35.437Z,6200.00
2019-03-19T08:27:35.418Z,6216.00
2019-03-19T08:28:35.407Z,6212.00
2019-03-19T08:29:35.396Z,6208.00
2019-03-19T08:30:35.425Z,6204.00
2019-03-19T08:31:35.381Z,6232.00
2019-03-19T08:32:35.367Z,6244.00
2019-03-19T08:33:35.364Z,6328.00
2019-03-19T08:34:36.327Z,6332.00
2019-03-19T08:35:35.332Z,6352.00
2019-03-19T08:36:35.334Z,6356.00
2019-03-19T08:37:35.318Z,6364.00
2019-03-19T08:38:35.315Z,6348.00
2019-03-19T08:39:36.633Z,6336.00
2019-03-19T08:40:35.281Z,6340.00
2019-03-19T08:41:35.273Z,6316.00
2019-03-19T08:42:35.259Z,6312.00
2019-03-19T08:43:35.244Z,6308.00
2019-03-19T08:44:35.236Z,6308.00
2019-03-19T08:45:35.243Z,6324.00
2019-03-19T08:46:35.209Z,6324.00
2019-03-19T08:47:35.257Z,6312.00
2019-03-19T08:48:37.370Z,6312.00
2019-03-19T08:49:35.203Z,6288.00
2019-03-19T08:50:35.192Z,6284.00
2019-03-19T08:51:35.159Z,6320.00
2019-03-19T08:52:35.167Z,6312.00
2019-03-19T08:53:35.151Z,6280.00
2019-03-19T08:54:35.123Z,6300.00
2019-03-19T08:55:35.130Z,6308.00
2019-03-19T08:56:35.110Z,6268.00
2019-03-19T08:57:35.113Z,6332.00
2019-03-19T08:58:35.091Z,6304.00
2019-03-19T08:59:35.087Z,6328.00
2019-03-19T09:00:35.152Z,6320.00
2019-03-19T09:01:35.052Z,6304.00
2019-03-19T09:02:35.045Z,6292.00
2019-03-19T09:03:35.042Z,6268.00
2019-03-19T09:04:35.862Z,6320.00
2019-03-19T09:05:35.013Z,6308.00
2019-03-19T09:06:35.014Z,6332.00
2019-03-19T09:07:34.983Z,6364.00
2019-03-19T09:08:34.977Z,6328.00
2019-03-19T09:09:34.976Z,6320.00
2019-03-19T09:10:34.963Z,6336.00
2019-03-19T09:11:36.561Z,6380.00
2019-03-19T09:12:34.943Z,6372.00
2019-03-19T09:13:34.930Z,6388.00
2019-03-19T09:14:34.913Z,6392.00
2019-03-19T09:15:34.920Z,6384.00
2019-03-19T09:16:34.938Z,6408.00
2019-03-19T09:17:34.885Z,6432.00
2019-03-19T09:18:34.866Z,6444.00
2019-03-19T09:19:34.864Z,6468.00
2019-03-19T09:20:34.845Z,6480.00
2019-03-19T09:21:34.835Z,6508.00
2019-03-19T09:22:34.852Z,6532.00
2019-03-19T09:23:34.826Z,6544.00
2019-03-19T09:24:34.829Z,6536.00
2019-03-19T09:25:34.797Z,6608.00
2019-03-19T09:26:35.324Z,6644.00
2019-03-19T09:27:34.791Z,6644.00
2019-03-19T09:28:34.785Z,6700.00
2019-03-19T09:29:34.745Z,6732.00
2019-03-19T09:30:34.750Z,6772.00
2019-03-19T09:31:34.733Z,6788.00
2019-03-19T09:32:34.747Z,6852.00
2019-03-19T09:33:34.703Z,6868.00
2019-03-19T09:34:34.715Z,6896.00
2019-03-19T09:35:34.700Z,6944.00
2019-03-19T09:36:34.680Z,7012.00
2019-03-19T09:37:34.668Z,7104.00
2019-03-19T09:38:34.668Z,7200.00
2019-03-19T09:39:34.664Z,7320.00
2019-03-19T09:40:34.630Z,7444.00
2019-03-19T09:41:34.625Z,7592.00
2019-03-19T09:42:34.613Z,7812.00
2019-03-19T09:43:34.613Z,7972.00
2019-03-19T09:44:34.589Z,8216.00
2019-03-19T09:45:34.580Z,8456.00
2019-03-19T09:46:34.574Z,8416.00
2019-03-19T09:47:34.552Z,8464.00
2019-03-19T09:48:34.563Z,8336.00
2019-03-19T09:49:34.536Z,8344.00
2019-03-19T09:50:34.534Z,8364.00
2019-03-19T09:51:34.510Z,8304.00
2019-03-19T09:52:34.498Z,8216.00
2019-03-19T09:53:34.505Z,8208.00
2019-03-19T09:54:34.529Z,8180.00
2019-03-19T09:55:34.496Z,8036.00
2019-03-19T09:56:34.461Z,7952.00
2019-03-19T09:57:34.456Z,8296.00
2019-03-19T09:58:34.438Z,8544.00
2019-03-19T09:59:34.440Z,8780.00
2019-03-19T10:00:34.429Z,8768.00
2019-03-19T10:01:34.404Z,8824.00
2019-03-19T10:02:34.398Z,8912.00
2019-03-19T10:03:34.381Z,8964.00
2019-03-19T10:04:34.388Z,9336.00
2019-03-19T10:05:34.354Z,9468.00
2019-03-19T10:06:34.353Z,9296.00
2019-03-19T10:07:34.340Z,9144.00
2019-03-19T10:08:34.368Z,9020.00
2019-03-19T10:09:34.319Z,9224.00
2019-03-19T10:10:34.386Z,9420.00
2019-03-19T10:11:34.297Z,9524.00
2019-03-19T10:12:34.307Z,7676.00
2019-03-19T10:13:34.328Z,7836.00
2019-03-19T10:14:34.264Z,8684.00
2019-03-19T10:15:34.277Z,9240.00
2019-03-19T10:16:34.249Z,7708.00
2019-03-19T10:17:34.243Z,7496.00
2019-03-19T10:18:34.212Z,7512.00
2019-03-19T10:19:34.214Z,7424.00
2019-03-19T10:20:34.197Z,7412.00
2019-03-19T10:21:34.317Z,7300.00
2019-03-19T10:22:34.171Z,9984.00
2019-03-19T10:23:34.201Z,9220.00
2019-03-19T10:24:34.149Z,10664.00
2019-03-19T10:25:34.146Z,10632.00
2019-03-19T10:26:34.155Z,10528.00
2019-03-19T10:27:34.120Z,10452.00
2019-03-19T10:28:34.111Z,10512.00
2019-03-19T10:29:38.331Z,10376.00
2019-03-19T10:30:34.096Z,10264.00
2019-03-19T10:31:34.093Z,10328.00
2019-03-19T10:32:34.068Z,9604.00
2019-03-19T10:33:34.052Z,7124.00
2019-03-19T10:34:34.046Z,6680.00
2019-03-19T10:35:34.041Z,9504.00
2019-03-19T10:36:34.018Z,9312.00
2019-03-19T10:37:34.021Z,9224.00
2019-03-19T10:38:34.019Z,9048.00
2019-03-19T10:39:33.993Z,8908.00
2019-03-19T10:40:33.993Z,8720.00
2019-03-19T10:41:33.990Z,8796.00
2019-03-19T10:42:33.998Z,8824.00
2019-03-19T10:43:33.963Z,8944.00
2019-03-19T10:44:33.934Z,9056.00
2019-03-19T10:45:33.927Z,9160.00
2019-03-19T10:46:33.934Z,9260.00
2019-03-19T10:47:33.919Z,9148.00
2019-03-19T10:48:33.898Z,8920.00
2019-03-19T10:49:33.883Z,6272.00
2019-03-19T10:50:33.866Z,8924.00
2019-03-19T10:51:35.189Z,8892.00
2019-03-19T10:52:33.874Z,8820.00
2019-03-19T10:53:33.847Z,8424.00
2019-03-19T10:54:33.831Z,6620.00
2019-03-19T10:55:33.820Z,5804.00
2019-03-19T10:56:33.818Z,8148.00
2019-03-19T10:57:33.803Z,5984.00
2019-03-19T10:58:33.805Z,7636.00
2019-03-19T10:59:33.785Z,8636.00
2019-03-19T11:00:33.773Z,9148.00
2019-03-19T11:01:33.755Z,9304.00
2019-03-19T11:02:33.753Z,9364.00
2019-03-19T11:03:33.749Z,9432.00
2019-03-19T11:04:33.717Z,9548.00
2019-03-19T11:05:33.706Z,9624.00
2019-03-19T11:06:33.729Z,9180.00
2019-03-19T11:07:33.688Z,7872.00
2019-03-19T11:08:33.686Z,8368.00
2019-03-19T11:09:33.667Z,7392.00
2019-03-19T11:10:33.655Z,6112.00
2019-03-19T11:11:33.646Z,5384.00
2019-03-19T11:12:33.662Z,5672.00
2019-03-19T11:13:33.636Z,5776.00
2019-03-19T11:14:33.670Z,5976.00
2019-03-19T11:15:33.597Z,7460.00
2019-03-19T11:16:33.584Z,7908.00
2019-03-19T11:17:33.593Z,7956.00
2019-03-19T11:18:33.569Z,7856.00
2019-03-19T11:19:33.574Z,7948.00
2019-03-19T11:20:33.569Z,7980.00
2019-03-19T11:21:33.536Z,7772.00
2019-03-19T11:22:33.672Z,7904.00
2019-03-19T11:23:33.514Z,7900.00
2019-03-19T11:24:33.526Z,7912.00
2019-03-19T11:25:33.501Z,7968.00
2019-03-19T11:26:33.478Z,7976.00
2019-03-19T11:27:33.466Z,7936.00
2019-03-19T11:28:33.463Z,7968.00
2019-03-19T11:29:33.464Z,7992.00
2019-03-19T11:30:33.459Z,8128.00
2019-03-19T11:31:33.432Z,8180.00
2019-03-19T11:32:33.419Z,8144.00
2019-03-19T11:33:33.405Z,8020.00
2019-03-19T11:34:33.397Z,7812.00
2019-03-19T11:35:33.395Z,7732.00
2019-03-19T11:36:33.374Z,7824.00
2019-03-19T11:37:33.360Z,7984.00
2019-03-19T11:38:33.350Z,7928.00
2019-03-19T11:39:33.351Z,7840.00
2019-03-19T11:40:33.341Z,7892.00
2019-03-19T11:41:33.345Z,7888.00
2019-03-19T11:42:33.313Z,7936.00
2019-03-19T11:43:33.299Z,7956.00
2019-03-19T11:44:33.299Z,8004.00
2019-03-19T11:45:33.276Z,8120.00
2019-03-19T11:46:33.282Z,8156.00
2019-03-19T11:47:33.252Z,8088.00
2019-03-19T11:48:33.237Z,8008.00
2019-03-19T11:49:33.238Z,7916.00
2019-03-19T11:50:33.701Z,7876.00
2019-03-19T11:51:33.231Z,7928.00
2019-03-19T11:52:33.202Z,7940.00
2019-03-19T11:53:33.190Z,7884.00
2019-03-19T11:54:33.177Z,7872.00
2019-03-19T11:55:33.177Z,7084.00
2019-03-19T11:56:33.176Z,7540.00
2019-03-19T11:57:33.172Z,8160.00
2019-03-19T11:58:33.134Z,8128.00
2019-03-19T11:59:33.126Z,8260.00
2019-03-19T12:00:33.114Z,8364.00
2019-03-19T12:01:33.123Z,8252.00
2019-03-19T12:02:33.096Z,8160.00
2019-03-19T12:03:33.087Z,8132.00
2019-03-19T12:04:33.075Z,8164.00
2019-03-19T12:05:33.068Z,8260.00
2019-03-19T12:06:33.063Z,8272.00
2019-03-19T12:07:33.061Z,8204.00
2019-03-19T12:08:33.032Z,8044.00
2019-03-19T12:09:33.021Z,8056.00
2019-03-19T12:10:33.011Z,8000.00
2019-03-19T12:11:33.008Z,7808.00
2019-03-19T12:12:33.007Z,7852.00
2019-03-19T12:13:32.973Z,7720.00
2019-03-19T12:14:32.970Z,7684.00
2019-03-19T12:15:32.959Z,7600.00
2019-03-19T12:16:32.973Z,7556.00
2019-03-19T12:17:32.939Z,6680.00
2019-03-19T12:18:32.982Z,4956.00
2019-03-19T12:19:32.935Z,6052.00
2019-03-19T12:20:32.899Z,7860.00
2019-03-19T12:21:32.890Z,7588.00
2019-03-19T12:22:32.888Z,7828.00
2019-03-19T12:23:32.895Z,7836.00
2019-03-19T12:24:32.932Z,7756.00
2019-03-19T12:25:32.859Z,7652.00
2019-03-19T12:26:32.835Z,7632.00
2019-03-19T12:27:32.822Z,7704.00
2019-03-19T12:28:39.693Z,7772.00
2019-03-19T12:29:33.817Z,7852.00
2019-03-19T12:30:32.801Z,7900.00
2019-03-19T12:31:32.813Z,7976.00
2019-03-19T12:32:32.768Z,8072.00
2019-03-19T12:33:40.439Z,8208.00
2019-03-19T12:34:33.754Z,8304.00
2019-03-19T12:35:32.750Z,8408.00
2019-03-19T12:36:32.749Z,8504.00
2019-03-19T12:37:32.735Z,8624.00
2019-03-19T12:38:32.713Z,8780.00
2019-03-19T12:39:32.732Z,8836.00
2019-03-19T12:40:37.260Z,8852.00
2019-03-19T12:41:32.692Z,8908.00
2019-03-19T12:42:32.667Z,8988.00
2019-03-19T12:43:32.658Z,9172.00
2019-03-19T12:44:32.673Z,9376.00
2019-03-19T12:45:32.654Z,9484.00
2019-03-19T12:46:32.627Z,9468.00
2019-03-19T12:47:32.618Z,9468.00
2019-03-19T12:48:32.605Z,9484.00
2019-03-19T12:49:32.603Z,9388.00
2019-03-19T12:50:32.625Z,9536.00
2019-03-19T12:51:32.566Z,9688.00
2019-03-19T12:52:32.558Z,9764.00
2019-03-19T12:53:32.556Z,9592.00
2019-03-19T12:54:32.546Z,9332.00
2019-03-19T12:55:32.547Z,9036.00
2019-03-19T12:56:32.583Z,8696.00
2019-03-19T12:57:32.505Z,8400.00
2019-03-19T12:58:32.490Z,8148.00
2019-03-19T12:59:32.482Z,7988.00
2019-03-19T13:00:34.553Z,7896.00
2019-03-19T13:01:32.592Z,7856.00
2019-03-19T13:02:32.471Z,7844.00
2019-03-19T13:03:32.440Z,7812.00
2019-03-19T13:04:32.534Z,7824.00
2019-03-19T13:05:32.420Z,7848.00
2019-03-19T13:06:32.440Z,7860.00
2019-03-19T13:07:32.419Z,7836.00
2019-03-19T13:08:32.383Z,7792.00
2019-03-19T13:09:32.369Z,7704.00
2019-03-19T13:10:32.365Z,7644.00
2019-03-19T13:11:32.365Z,7508.00
2019-03-19T13:12:32.335Z,7452.00
2019-03-19T13:13:32.339Z,7484.00
2019-03-19T13:14:32.313Z,7612.00
2019-03-19T13:15:32.523Z,7652.00
2019-03-19T13:16:32.330Z,7688.00
2019-03-19T13:17:32.280Z,7688.00
2019-03-19T13:18:32.278Z,7788.00
2019-03-19T13:19:32.264Z,7944.00
2019-03-19T13:20:32.254Z,8064.00
2019-03-19T13:21:32.251Z,8164.00
2019-03-19T13:22:32.236Z,8240.00
2019-03-19T13:23:32.231Z,8344.00
2019-03-19T13:24:32.225Z,8404.00
2019-03-19T13:25:32.192Z,8456.00
2019-03-19T13:26:32.204Z,8520.00
2019-03-19T13:27:32.177Z,8548.00
2019-03-19T13:28:32.982Z,8512.00
2019-03-19T13:29:32.166Z,8460.00
2019-03-19T13:30:32.139Z,8532.00
2019-03-19T13:31:32.221Z,8660.00
2019-03-19T13:32:32.148Z,8732.00
2019-03-19T13:33:32.114Z,8848.00
2019-03-19T13:34:32.095Z,8980.00
2019-03-19T13:35:32.085Z,9008.00
2019-03-19T13:36:32.072Z,9060.00
2019-03-19T13:37:32.079Z,9008.00
2019-03-19T13:38:32.060Z,9108.00
2019-03-19T13:39:32.042Z,9244.00
2019-03-19T13:40:32.034Z,9056.00
2019-03-19T13:41:32.094Z,9148.00
2019-03-19T13:42:32.021Z,7600.00
2019-03-19T13:43:32.167Z,6556.00
2019-03-19T13:44:32.586Z,7204.00
2019-03-19T13:45:32.062Z,9064.00
2019-03-19T13:46:32.128Z,8800.00
2019-03-19T13:47:32.029Z,8700.00
2019-03-19T13:48:32.838Z,8716.00
2019-03-19T13:49:31.926Z,8592.00
2019-03-19T13:50:31.917Z,5940.00
2019-03-19T13:51:31.913Z,6652.00
2019-03-19T13:52:31.895Z,5888.00
2019-03-19T13:53:31.896Z,8792.00
2019-03-19T13:54:31.875Z,7880.00
2019-03-19T13:55:31.862Z,6528.00
2019-03-19T13:56:31.858Z,8476.00
2019-03-19T13:57:39.230Z,6032.00
2019-03-19T13:58:31.924Z,6028.00
2019-03-19T13:59:38.939Z,5988.00
2019-03-19T14:00:39.340Z,8980.00
2019-03-19T14:01:39.381Z,9100.00
2019-03-19T14:02:39.678Z,9084.00
2019-03-19T14:03:39.480Z,6408.00
2019-03-19T14:04:38.840Z,8300.00
2019-03-19T14:05:39.051Z,8788.00
2019-03-19T14:06:31.740Z,8696.00
2019-03-19T14:07:31.731Z,8500.00
2019-03-19T14:08:32.046Z,6100.00
2019-03-19T14:09:31.709Z,5612.00
2019-03-19T14:10:31.715Z,7220.00
2019-03-19T14:11:31.684Z,6592.00
2019-03-19T14:12:31.679Z,8588.00
2019-03-19T14:13:31.664Z,9124.00
2019-03-19T14:14:31.683Z,7556.00
2019-03-19T14:15:31.667Z,8708.00
2019-03-19T14:16:31.636Z,7608.00
2019-03-19T14:17:31.888Z,9056.00
2019-03-19T14:18:31.615Z,8932.00
2019-03-19T14:19:31.606Z,9608.00
2019-03-19T14:20:31.938Z,9588.00
2019-03-19T14:21:31.668Z,9456.00
2019-03-19T14:22:31.732Z,8072.00
2019-03-19T14:23:31.898Z,6432.00
2019-03-19T14:24:31.548Z,6248.00
2019-03-19T14:25:31.534Z,6112.00
2019-03-19T14:26:31.543Z,5876.00
2019-03-19T14:27:31.522Z,8208.00
2019-03-19T14:28:32.196Z,5812.00
2019-03-19T14:29:31.493Z,6116.00
2019-03-19T14:30:31.480Z,6164.00
2019-03-19T14:31:31.494Z,6168.00
2019-03-19T14:32:31.530Z,6128.00
2019-03-19T14:33:31.454Z,6116.00
2019-03-19T14:34:31.451Z,6448.00
2019-03-19T14:35:37.243Z,6084.00
2019-03-19T14:36:32.435Z,6840.00
2019-03-19T14:37:31.436Z,6924.00
2019-03-19T14:38:31.399Z,7720.00
2019-03-19T14:39:31.409Z,5284.00
2019-03-19T14:40:31.402Z,5500.00
2019-03-19T14:41:31.381Z,6888.00
2019-03-19T14:42:31.363Z,7784.00
2019-03-19T14:43:31.342Z,7896.00
2019-03-19T14:44:31.328Z,7992.00
2019-03-19T14:45:31.321Z,6508.00
2019-03-19T14:46:31.756Z,7076.00
2019-03-19T14:47:31.320Z,8176.00
2019-03-19T14:48:31.332Z,7948.00
2019-03-19T14:49:31.282Z,7584.00
2019-03-19T14:50:31.272Z,7248.00
2019-03-19T14:51:31.295Z,6968.00
2019-03-19T14:52:31.250Z,6928.00
2019-03-19T14:53:31.251Z,6892.00
2019-03-19T14:54:31.225Z,6868.00
2019-03-19T14:55:31.211Z,6832.00
2019-03-19T14:56:31.219Z,6744.00
2019-03-19T14:57:31.190Z,6644.00
2019-03-19T14:58:31.194Z,6540.00
2019-03-19T14:59:31.188Z,5916.00
2019-03-19T15:00:31.157Z,6152.00
2019-03-19T15:01:31.144Z,6104.00
2019-03-19T15:02:31.156Z,5980.00
2019-03-19T15:03:31.136Z,5924.00
2019-03-19T15:04:31.116Z,5936.00
2019-03-19T15:05:31.158Z,5908.00
2019-03-19T15:06:31.097Z,4836.00
2019-03-19T15:07:31.099Z,5756.00
2019-03-19T15:08:31.073Z,3568.00
2019-03-19T15:09:31.065Z,3528.00
2019-03-19T15:10:31.067Z,3548.00
2019-03-19T15:11:31.043Z,3568.00
2019-03-19T15:12:31.075Z,3540.00
2019-03-19T15:13:31.023Z,3516.00
2019-03-19T15:14:31.017Z,3500.00
2019-03-19T15:15:31.011Z,3508.00
2019-03-19T15:16:31.009Z,4428.00
2019-03-19T15:17:30.980Z,3396.00
2019-03-19T15:18:30.988Z,3384.00
2019-03-19T15:19:30.958Z,3388.00
2019-03-19T15:20:30.949Z,3396.00
2019-03-19T15:21:30.934Z,3392.00
2019-03-19T15:22:32.684Z,3408.00
2019-03-19T15:23:30.920Z,3340.00
2019-03-19T15:24:30.918Z,3300.00
2019-03-19T15:25:30.887Z,3308.00
2019-03-19T15:26:30.907Z,3316.00
2019-03-19T15:27:30.873Z,3356.00
2019-03-19T15:28:30.876Z,3556.00
2019-03-19T15:29:30.865Z,5220.00
2019-03-19T15:30:30.832Z,4988.00
2019-03-19T15:31:30.839Z,4316.00
2019-03-19T15:32:30.815Z,4556.00
2019-03-19T15:33:30.808Z,4736.00
2019-03-19T15:34:30.816Z,4728.00
2019-03-19T15:35:30.953Z,4976.00
2019-03-19T15:36:30.918Z,4936.00
2019-03-19T15:37:30.960Z,4876.00
2019-03-19T15:38:30.744Z,3304.00
2019-03-19T15:39:30.751Z,3224.00
2019-03-19T15:40:30.729Z,3156.00
2019-03-19T15:41:30.722Z,3112.00
2019-03-19T15:42:30.722Z,3080.00
2019-03-19T15:43:30.693Z,3040.00
2019-03-19T15:44:30.768Z,2992.00
2019-03-19T15:45:30.670Z,2952.00
2019-03-19T15:46:30.667Z,2916.00
2019-03-19T15:47:30.788Z,2888.00
2019-03-19T15:48:30.859Z,2876.00
2019-03-19T15:49:38.171Z,2864.00
2019-03-19T15:50:31.614Z,2856.00
2019-03-19T15:51:30.606Z,2852.00
2019-03-19T15:52:30.606Z,2860.00
2019-03-19T15:53:30.610Z,2880.00
2019-03-19T15:54:30.576Z,2928.00
2019-03-19T15:55:30.591Z,2952.00
2019-03-19T15:56:30.551Z,3140.00
2019-03-19T15:57:30.537Z,3400.00
2019-03-19T15:58:30.687Z,3364.00
2019-03-19T15:59:30.722Z,3324.00
2019-03-19T16:00:30.610Z,3268.00
2019-03-19T16:01:40.043Z,3128.00
2019-03-19T16:02:31.538Z,3184.00
2019-03-19T16:03:30.655Z,2912.00
2019-03-19T16:04:30.478Z,2856.00
2019-03-19T16:05:30.475Z,2816.00
2019-03-19T16:06:30.449Z,2784.00
2019-03-19T16:07:30.435Z,2764.00
2019-03-19T16:08:30.426Z,2760.00
2019-03-19T16:09:30.413Z,2756.00
2019-03-19T16:10:30.396Z,2732.00
2019-03-19T16:11:30.407Z,2716.00
2019-03-19T16:12:30.382Z,2708.00
2019-03-19T16:13:30.370Z,2692.00
2019-03-19T16:14:30.376Z,2664.00
2019-03-19T16:15:30.345Z,2632.00
2019-03-19T16:16:30.356Z,2612.00
2019-03-19T16:17:30.334Z,2588.00
2019-03-19T16:18:30.325Z,2572.00
2019-03-19T16:19:30.304Z,2548.00
2019-03-19T16:20:30.293Z,2524.00
2019-03-19T16:21:30.305Z,2496.00
2019-03-19T16:22:30.266Z,2484.00
2019-03-19T16:23:30.257Z,2480.00
2019-03-19T16:24:30.248Z,2488.00
2019-03-19T16:25:30.233Z,2496.00
2019-03-19T16:26:30.284Z,2484.00
2019-03-19T16:27:30.218Z,2452.00
2019-03-19T16:28:30.204Z,2412.00
2019-03-19T16:29:30.224Z,2368.00
2019-03-19T16:30:30.190Z,2320.00
2019-03-19T16:31:30.184Z,2276.00
2019-03-19T16:32:30.177Z,2232.00
2019-03-19T16:33:30.159Z,2184.00
2019-03-19T16:34:30.153Z,2248.00
2019-03-19T16:35:30.134Z,2232.00
2019-03-19T16:36:30.117Z,2200.00
2019-03-19T16:37:30.118Z,2216.00
2019-03-19T16:38:30.128Z,2208.00
2019-03-19T16:39:30.092Z,2204.00
2019-03-19T16:40:30.084Z,2196.00